Terminal Aerodrome Forecast
Issued by NWS Charleston, WV

Current Version | Previous Version | Graphics & Text | Print | Product List | Glossary On
Versions: 1 2 3 4 5 6 7 8 9 10 11 12 13 14 15 16 17 18 19 20 21 22 23 24 25 26 27 28 29
000
FTUS41 KRLX 212331
TAFHTS
TAF
KHTS 212331Z 2200/2224 23005KT P6SM SCT200
     FM220300 00000KT P6SM SCT250
     FM221400 VRB03KT P6SM BKN100
     FM221800 22007KT P6SM BKN080
     FM222220 19004KT P6SM SHRA VCTS OVC035CB=

USA.gov is the U.S. government's official web portal to all federal, state and local government web resources and services.